Time;durP1;ratioP1;P1;durP2;ratioP2;P2;SDS_P1;SDS_P2;PMS_P1;PMS_P2;Temp;Humidity;BMP_temperature;BMP_pressure;BME280_temperature;BME280_humidity;BME280_pressure;Samples;Min_cycle;Max_cycle;Signal;HPM_P1;HPM_P2
2022/07/01 00:01:41;;;;;;;1.27;1.10;;;19.60;67.00;;;;;;6163467;23;19997;-71
2022/07/01 00:04:07;;;;;;;1.45;1.15;;;19.60;67.00;;;;;;6188549;23;20452;-71
2022/07/01 00:06:33;;;;;;;1.55;1.13;;;19.60;67.00;;;;;;6188372;23;20024;-71
2022/07/01 00:08:59;;;;;;;1.85;1.17;;;19.60;67.00;;;;;;6188477;23;20005;-71
2022/07/01 00:11:24;;;;;;;3.40;1.10;;;19.60;67.00;;;;;;6188560;23;20019;-71
2022/07/01 00:13:50;;;;;;;1.83;1.17;;;19.60;67.00;;;;;;6188450;23;20051;-71
2022/07/01 00:16:15;;;;;;;2.30;1.50;;;19.60;67.00;;;;;;6214505;23;20012;-71
2022/07/01 00:18:41;;;;;;;2.25;1.13;;;19.60;67.10;;;;;;6214817;23;20441;-71
2022/07/01 00:21:07;;;;;;;1.50;0.90;;;19.60;67.10;;;;;;6188193;23;20000;-71
2022/07/01 00:23:32;;;;;;;1.48;1.10;;;19.60;67.10;;;;;;6188232;23;20004;-71
2022/07/01 00:25:58;;;;;;;1.90;1.17;;;19.60;67.20;;;;;;6188395;23;20027;-71
2022/07/01 00:28:24;;;;;;;2.08;1.15;;;19.60;67.20;;;;;;6163446;23;20452;-71
2022/07/01 00:30:49;;;;;;;2.97;1.17;;;19.60;67.10;;;;;;6214410;23;20455;-71
2022/07/01 00:33:15;;;;;;;1.25;1.02;;;19.60;67.20;;;;;;6188154;23;20468;-71
2022/07/01 00:35:41;;;;;;;3.20;1.13;;;19.60;67.20;;;;;;6163320;23;20012;-71
2022/07/01 00:38:06;;;;;;;2.33;1.20;;;19.60;67.30;;;;;;6214468;23;20012;-71
2022/07/01 00:40:32;;;;;;;1.83;1.13;;;19.50;67.30;;;;;;6187872;23;20013;-71
2022/07/01 00:42:57;;;;;;;3.65;1.40;;;19.60;67.40;;;;;;6188134;23;20075;-71
2022/07/01 00:45:23;;;;;;;2.10;1.10;;;19.60;68.40;;;;;;6213923;23;20001;-71
2022/07/01 00:47:49;;;;;;;1.40;0.90;;;19.60;67.30;;;;;;6214370;23;20051;-71
2022/07/01 00:50:15;;;;;;;1.15;0.93;;;19.60;67.30;;;;;;6188109;23;20311;-71
2022/07/01 00:52:41;;;;;;;1.30;1.20;;;19.60;67.30;;;;;;6214264;23;20000;-71
2022/07/01 00:55:08;;;;;;;1.90;1.20;;;19.60;67.30;;;;;;6188317;23;20001;-71
2022/07/01 00:57:35;;;;;;;1.77;1.15;;;19.60;67.20;;;;;;6187926;23;20005;-71
2022/07/01 01:00:05;;;;;;;2.60;1.27;;;19.60;67.20;;;;;;6163611;23;20062;-71
2022/07/01 01:02:30;;;;;;;1.77;1.10;;;19.60;67.20;;;;;;6163922;23;20035;-71
2022/07/01 01:04:56;;;;;;;1.73;1.15;;;19.60;67.20;;;;;;6214443;23;20000;-71
2022/07/01 01:07:22;;;;;;;1.27;1.00;;;19.60;67.20;;;;;;6214664;23;19996;-71
2022/07/01 01:09:48;;;;;;;1.50;0.90;;;19.60;67.30;;;;;;6187925;23;20008;-71
2022/07/01 01:12:14;;;;;;;2.33;1.17;;;19.60;67.30;;;;;;6188160;23;20015;-71
2022/07/01 01:14:46;;;;;;;2.13;0.95;;;19.60;67.30;;;;;;6214122;23;20028;-71
2022/07/01 01:17:12;;;;;;;1.67;0.95;;;19.60;67.20;;;;;;6188030;23;20009;-71
2022/07/01 01:19:39;;;;;;;2.40;1.20;;;19.60;67.30;;;;;;6214065;23;20337;-71
2022/07/01 01:22:05;;;;;;;4.03;1.10;;;19.60;67.40;;;;;;6214526;23;20342;-71
2022/07/01 01:24:30;;;;;;;1.23;1.00;;;19.60;67.30;;;;;;6214179;23;19997;-71
2022/07/01 01:26:56;;;;;;;1.98;1.10;;;19.60;67.40;;;;;;6185811;23;20001;-71
2022/07/01 01:29:21;;;;;;;1.52;1.00;;;19.60;67.50;;;;;;6213910;23;20056;-71
2022/07/01 01:31:47;;;;;;;1.25;0.93;;;19.60;67.40;;;;;;6187698;23;20083;-71
2022/07/01 01:34:13;;;;;;;2.70;1.10;;;19.60;67.40;;;;;;6188084;23;20012;-71
2022/07/01 01:36:38;;;;;;;3.75;1.15;;;19.60;67.50;;;;;;6187648;23;20001;-71
2022/07/01 01:39:15;;;;;;;1.73;0.90;;;19.60;67.50;;;;;;6214075;23;20365;-71
2022/07/01 01:41:41;;;;;;;1.67;1.10;;;19.50;68.20;;;;;;6214050;23;20011;-71
2022/07/01 01:44:07;;;;;;;2.88;1.00;;;19.50;67.50;;;;;;6187950;23;20076;-71
2022/07/01 01:46:32;;;;;;;1.30;0.90;;;19.50;67.50;;;;;;6213434;23;20495;-71
2022/07/01 01:48:58;;;;;;;1.92;0.85;;;19.50;67.50;;;;;;6163150;23;20445;-71
2022/07/01 01:51:24;;;;;;;1.77;1.00;;;19.50;67.50;;;;;;6162961;23;20306;-71
2022/07/01 01:53:50;;;;;;;1.90;0.88;;;19.50;68.60;;;;;;6187689;23;20001;-71
2022/07/01 01:56:15;;;;;;;1.00;0.90;;;19.50;67.60;;;;;;6187879;23;20357;-71
2022/07/01 01:58:42;;;;;;;0.70;0.70;;;19.50;67.50;;;;;;6214355;23;20004;-71
2022/07/01 02:01:19;;;;;;;1.02;0.90;;;19.50;67.60;;;;;;6214210;23;20000;-71
2022/07/01 02:03:46;;;;;;;1.83;1.02;;;19.50;67.60;;;;;;6188132;23;20345;-71
2022/07/01 02:06:12;;;;;;;2.20;1.20;;;19.50;67.60;;;;;;6163661;23;19997;-71
2022/07/01 02:08:38;;;;;;;1.83;1.00;;;19.50;67.70;;;;;;6187822;23;20007;-71
2022/07/01 02:11:04;;;;;;;1.75;1.10;;;19.50;67.70;;;;;;6163400;23;20340;-71
2022/07/01 02:13:30;;;;;;;1.58;1.00;;;19.50;67.60;;;;;;6189866;23;20000;-71
2022/07/01 02:15:56;;;;;;;1.40;0.95;;;19.50;67.70;;;;;;6189387;23;20004;-71
2022/07/01 02:18:22;;;;;;;1.77;1.00;;;19.50;67.70;;;;;;6215938;23;20024;-71
2022/07/01 02:20:48;;;;;;;1.13;0.98;;;19.50;67.70;;;;;;6189376;23;20001;-71
2022/07/01 02:23:14;;;;;;;1.70;1.00;;;19.50;67.70;;;;;;6215905;23;20011;-71
2022/07/01 02:25:40;;;;;;;1.15;0.93;;;19.50;67.70;;;;;;6189357;23;20001;-71
2022/07/01 02:28:05;;;;;;;1.63;1.00;;;19.50;67.70;;;;;;6189444;23;20007;-71
2022/07/01 02:30:35;;;;;;;1.13;0.98;;;19.50;67.70;;;;;;6189281;23;20417;-71
2022/07/01 02:33:00;;;;;;;1.58;1.00;;;19.50;67.70;;;;;;6190111;23;20000;-71
2022/07/01 02:35:26;;;;;;;2.20;0.90;;;19.50;67.80;;;;;;6189381;23;20005;-71
2022/07/01 02:37:51;;;;;;;1.45;1.00;;;19.50;67.90;;;;;;6188909;23;20020;-71
2022/07/01 02:40:17;;;;;;;1.95;0.90;;;19.50;67.80;;;;;;6215268;23;20445;-71
2022/07/01 02:42:43;;;;;;;1.65;0.82;;;19.50;67.80;;;;;;6189182;23;20005;-71
2022/07/01 02:45:08;;;;;;;1.88;0.98;;;19.50;67.80;;;;;;6215957;23;19997;-71
2022/07/01 02:47:38;;;;;;;1.58;0.77;;;19.50;67.80;;;;;;6215832;23;20008;-71
2022/07/01 02:50:04;;;;;;;1.67;0.90;;;19.50;67.90;;;;;;6165106;23;20004;-71
2022/07/01 02:52:30;;;;;;;1.83;0.70;;;19.40;67.70;;;;;;6215920;23;20000;-71
2022/07/01 02:54:56;;;;;;;1.00;0.90;;;19.50;67.80;;;;;;6215158;23;20012;-71
2022/07/01 02:57:22;;;;;;;1.15;0.95;;;19.50;67.80;;;;;;6164529;23;20079;-71
2022/07/01 02:59:47;;;;;;;1.90;1.02;;;19.40;67.70;;;;;;6215260;23;20342;-71
2022/07/01 03:02:13;;;;;;;1.95;0.80;;;19.50;68.80;;;;;;6215677;23;20004;-71
2022/07/01 03:04:39;;;;;;;2.63;0.90;;;19.50;67.80;;;;;;6215464;23;20000;-71
2022/07/01 03:07:04;;;;;;;1.77;0.90;;;19.50;67.90;;;;;;6215378;23;20377;-71
2022/07/01 03:09:30;;;;;;;1.00;0.80;;;19.40;67.80;;;;;;6189011;23;20007;-71
2022/07/01 03:11:56;;;;;;;3.80;0.80;;;19.40;67.80;;;;;;6215136;23;20449;-71
2022/07/01 03:14:21;;;;;;;0.90;0.80;;;19.40;67.80;;;;;;6215609;23;20005;-71
2022/07/01 03:16:47;;;;;;;0.80;0.80;;;19.40;67.90;;;;;;6215515;23;20004;-71
2022/07/01 03:19:13;;;;;;;2.08;0.88;;;19.40;67.70;;;;;;6164098;23;20004;-71
2022/07/01 03:21:40;;;;;;;1.65;1.10;;;19.40;67.70;;;;;;6189197;23;20429;-71
2022/07/01 03:24:06;;;;;;;1.15;0.90;;;19.40;67.70;;;;;;6214913;23;20005;-71
2022/07/01 03:26:31;;;;;;;8.45;1.15;;;19.40;67.80;;;;;;6164265;23;20391;-71
2022/07/01 03:28:57;;;;;;;2.58;0.95;;;19.40;67.80;;;;;;6215100;23;20432;-71
2022/07/01 03:31:23;;;;;;;1.20;0.70;;;19.40;67.80;;;;;;6188906;23;20433;-71
2022/07/01 03:33:48;;;;;;;0.82;0.80;;;19.40;67.80;;;;;;6215068;23;20028;-71
2022/07/01 03:36:14;;;;;;;1.10;0.90;;;19.40;67.90;;;;;;6188656;23;20349;-71
2022/07/01 03:38:39;;;;;;;1.10;0.90;;;19.40;67.90;;;;;;6212658;23;20012;-70
2022/07/01 03:41:05;;;;;;;2.80;1.00;;;19.40;68.00;;;;;;6214059;23;20083;-71
2022/07/01 03:43:31;;;;;;;1.33;0.80;;;19.40;68.00;;;;;;6214327;23;20068;-71
2022/07/01 03:45:56;;;;;;;0.93;0.82;;;19.40;68.00;;;;;;6213391;23;20001;-71
2022/07/01 03:48:22;;;;;;;2.15;0.88;;;19.40;68.00;;;;;;6187723;23;20499;-71
2022/07/01 03:50:47;;;;;;;1.27;0.90;;;19.40;68.00;;;;;;6214072;23;20005;-71
2022/07/01 03:55:57;;;;;;;2.75;0.90;;;19.40;68.00;;;;;;6214114;23;20027;-71
2022/07/01 03:58:23;;;;;;;1.67;0.90;;;19.40;68.10;;;;;;6187646;23;20456;-71
2022/07/01 04:00:48;;;;;;;1.58;0.80;;;19.40;68.10;;;;;;6187311;23;20016;-71
2022/07/01 04:03:14;;;;;;;0.70;0.60;;;19.40;68.10;;;;;;6187638;23;20427;-71
2022/07/01 04:05:40;;;;;;;2.22;0.82;;;19.40;68.10;;;;;;6187442;23;20059;-71
2022/07/01 04:08:07;;;;;;;0.77;0.70;;;19.40;68.10;;;;;;6187642;23;20074;-71
2022/07/01 04:10:33;;;;;;;1.38;0.77;;;19.40;68.10;;;;;;6214118;23;20072;-71
2022/07/01 04:13:00;;;;;;;2.00;0.80;;;19.40;68.10;;;;;;6187852;23;20004;-71
2022/07/01 04:15:26;;;;;;;1.00;0.90;;;19.40;68.10;;;;;;6187973;23;20032;-71
2022/07/01 04:17:51;;;;;;;2.80;1.02;;;19.40;68.10;;;;;;6214318;23;20495;-71
2022/07/01 04:20:17;;;;;;;1.08;0.70;;;19.40;68.10;;;;;;6214162;23;20005;-71
2022/07/01 04:22:42;;;;;;;0.85;0.77;;;19.40;68.10;;;;;;6214192;23;20328;-71
2022/07/01 04:25:08;;;;;;;1.65;0.70;;;19.30;68.00;;;;;;6188090;23;19997;-71
2022/07/01 04:27:34;;;;;;;1.42;1.00;;;19.30;68.10;;;;;;6215120;23;20011;-71
2022/07/01 04:30:02;;;;;;;0.80;0.70;;;19.40;68.10;;;;;;6188910;23;20476;-71
2022/07/01 04:32:28;;;;;;;1.15;0.77;;;19.40;68.20;;;;;;6164866;23;20005;-71
2022/07/01 04:34:53;;;;;;;1.77;0.77;;;19.30;68.00;;;;;;6188566;23;20039;-71
2022/07/01 04:37:19;;;;;;;1.50;0.93;;;19.30;68.10;;;;;;6214773;23;20016;-71
2022/07/01 04:39:45;;;;;;;1.05;0.70;;;19.40;68.10;;;;;;6188746;23;20031;-71
2022/07/01 04:42:10;;;;;;;0.60;0.60;;;19.30;68.00;;;;;;6214914;23;19997;-71
2022/07/01 04:44:37;;;;;;;0.70;0.70;;;19.30;68.10;;;;;;6215231;23;19996;-71
2022/07/01 04:47:03;;;;;;;1.50;0.90;;;19.30;68.00;;;;;;6164076;23;19997;-71
2022/07/01 04:49:29;;;;;;;1.55;0.63;;;19.40;68.10;;;;;;6139281;23;20357;-71
2022/07/01 04:51:55;;;;;;;0.85;0.70;;;19.30;68.10;;;;;;6215098;23;20028;-71
2022/07/01 04:54:21;;;;;;;1.73;0.70;;;19.30;68.00;;;;;;6188774;23;20429;-71
2022/07/01 04:56:46;;;;;;;3.03;0.70;;;19.30;68.10;;;;;;6188477;23;20082;-71
2022/07/01 04:59:12;;;;;;;1.15;0.80;;;19.30;68.10;;;;;;6215151;23;20005;-71
2022/07/01 05:01:39;;;;;;;1.65;0.60;;;19.30;68.10;;;;;;6215202;23;20003;-71
2022/07/01 05:04:04;;;;;;;0.70;0.70;;;19.30;68.10;;;;;;6215281;23;20434;-71
2022/07/01 05:06:30;;;;;;;1.40;0.85;;;19.30;68.10;;;;;;6215010;23;20028;-71
2022/07/01 05:08:56;;;;;;;1.25;0.75;;;19.30;68.20;;;;;;6188639;23;19997;-71
2022/07/01 05:11:21;;;;;;;1.77;0.70;;;19.30;68.20;;;;;;6188730;23;20000;-71
2022/07/01 05:13:47;;;;;;;1.50;0.80;;;19.30;68.20;;;;;;6188693;23;20000;-71
2022/07/01 05:16:13;;;;;;;1.75;0.60;;;19.30;68.20;;;;;;6215294;23;20024;-71
2022/07/01 05:24:07;;;;;;;0.93;0.70;;;19.30;68.20;;;;;;6192680;23;20056;-71
2022/07/01 05:26:33;;;;;;;0.80;0.70;;;19.30;68.30;;;;;;6188622;23;20000;-71
2022/07/01 05:28:58;;;;;;;1.48;0.77;;;19.30;68.30;;;;;;6188583;23;20090;-71
2022/07/01 05:31:24;;;;;;;0.82;0.60;;;19.30;68.20;;;;;;6188506;23;20012;-71
2022/07/01 05:33:50;;;;;;;1.10;0.80;;;19.30;68.30;;;;;;6214816;23;20007;-71
2022/07/01 05:36:15;;;;;;;1.08;0.60;;;19.30;68.30;;;;;;6215022;23;20001;-71
2022/07/01 05:38:41;;;;;;;1.13;0.70;;;19.30;68.30;;;;;;6214826;23;20102;-71
2022/07/01 05:41:07;;;;;;;0.70;0.65;;;19.30;68.30;;;;;;6188598;23;20038;-71
2022/07/01 05:43:33;;;;;;;1.30;0.90;;;19.30;68.30;;;;;;6188512;23;20005;-71
2022/07/01 05:45:58;;;;;;;0.82;0.70;;;19.30;68.20;;;;;;6189446;23;19996;-71
2022/07/01 05:48:24;;;;;;;1.05;0.80;;;19.30;68.20;;;;;;6216657;23;20008;-71
2022/07/01 05:50:50;;;;;;;0.73;0.70;;;19.30;68.30;;;;;;6190397;23;20005;-71
2022/07/01 05:53:16;;;;;;;1.15;0.68;;;19.30;68.30;;;;;;6165110;23;20349;-71
2022/07/01 05:55:42;;;;;;;1.25;0.70;;;19.30;68.40;;;;;;6190138;23;20027;-71
2022/07/01 05:58:08;;;;;;;3.65;0.77;;;19.30;68.50;;;;;;6190499;23;20001;-71
2022/07/01 06:00:34;;;;;;;1.75;0.70;;;19.30;68.50;;;;;;6190250;23;20055;-71
2022/07/01 06:03:00;;;;;;;1.60;0.82;;;19.30;68.50;;;;;;6216397;23;20054;-71
2022/07/01 06:05:26;;;;;;;0.45;0.45;;;19.30;68.50;;;;;;6216651;23;20000;-71
2022/07/01 06:07:51;;;;;;;0.98;0.90;;;19.30;68.60;;;;;;6190176;23;20031;-71
2022/07/01 06:10:17;;;;;;;1.40;0.77;;;19.30;68.60;;;;;;6216798;23;20004;-71
2022/07/01 06:12:42;;;;;;;1.10;0.73;;;19.20;68.50;;;;;;6190157;23;20479;-71
2022/07/01 06:15:10;;;;;;;0.60;0.60;;;19.20;68.50;;;;;;6216560;23;20055;-70
2022/07/01 06:17:36;;;;;;;2.63;0.57;;;19.30;68.60;;;;;;6190270;23;20429;-70
2022/07/01 06:20:02;;;;;;;0.60;0.60;;;19.30;68.60;;;;;;6189967;23;20007;-71
2022/07/01 06:22:28;;;;;;;0.82;0.52;;;19.30;68.60;;;;;;6216969;23;20417;-71
2022/07/01 06:24:53;;;;;;;0.75;0.50;;;19.20;68.50;;;;;;6216641;23;20004;-71
2022/07/01 06:27:19;;;;;;;0.68;0.68;;;19.20;68.70;;;;;;6216443;23;20007;-71
2022/07/01 06:29:45;;;;;;;2.85;1.02;;;19.30;68.70;;;;;;6216110;23;20001;-71
2022/07/01 06:32:11;;;;;;;0.90;0.50;;;19.30;68.70;;;;;;6215342;23;20118;-71
2022/07/01 06:34:36;;;;;;;1.23;0.70;;;19.30;68.80;;;;;;6189398;23;20032;-71
2022/07/01 06:37:03;;;;;;;1.30;0.80;;;19.30;68.80;;;;;;6189203;23;20055;-71
2022/07/01 06:39:29;;;;;;;1.08;0.60;;;19.30;68.80;;;;;;6189377;23;20004;-71
2022/07/01 06:41:55;;;;;;;0.55;0.52;;;19.20;68.80;;;;;;6164426;23;20004;-71
2022/07/01 06:44:20;;;;;;;0.85;0.70;;;19.20;68.80;;;;;;6189032;23;19996;-71
2022/07/01 06:46:46;;;;;;;0.52;0.45;;;19.20;68.80;;;;;;6189203;23;19996;-71
2022/07/01 06:49:12;;;;;;;0.57;0.50;;;19.30;68.80;;;;;;6189154;23;20452;-71
2022/07/01 06:51:38;;;;;;;0.70;0.50;;;19.30;68.90;;;;;;6189215;23;20000;-71
2022/07/01 06:54:03;;;;;;;1.13;1.02;;;19.30;68.90;;;;;;6215711;23;19997;-71
2022/07/01 06:56:29;;;;;;;1.70;0.60;;;19.30;68.90;;;;;;6163788;23;20005;-71
2022/07/01 06:58:54;;;;;;;0.70;0.70;;;19.30;68.90;;;;;;6215624;23;20467;-71
2022/07/01 07:01:20;;;;;;;2.20;0.70;;;19.30;69.00;;;;;;6188852;23;20001;-71
2022/07/01 07:03:46;;;;;;;1.20;0.57;;;19.30;68.90;;;;;;6215585;23;19997;-70
2022/07/01 07:06:11;;;;;;;1.95;0.65;;;19.30;68.90;;;;;;6189120;23;20004;-70
2022/07/01 07:08:38;;;;;;;1.85;0.90;;;19.20;67.40;;;;;;6215753;23;20001;-70
2022/07/01 07:11:03;;;;;;;3.08;0.60;;;19.10;66.60;;;;;;6188980;23;20031;-70
2022/07/01 07:13:29;;;;;;;1.92;0.57;;;19.00;66.20;;;;;;6215603;23;20429;-70
2022/07/01 07:15:55;;;;;;;4.38;0.63;;;19.00;66.10;;;;;;6187861;23;20004;-76
2022/07/01 07:18:20;;;;;;;1.85;0.80;;;18.90;66.80;;;;;;6215700;23;20008;-74
2022/07/01 07:20:49;;;;;;;3.70;0.52;;;19.00;65.20;;;;;;6189640;23;20075;-74
2022/07/01 07:23:15;;;;;;;2.35;0.63;;;19.10;64.60;;;;;;6215831;23;20009;-75
2022/07/01 07:25:40;;;;;;;1.80;0.50;;;19.20;64.40;;;;;;6189602;23;20418;-74
2022/07/01 07:28:06;;;;;;;2.78;0.57;;;19.20;64.10;;;;;;6165008;23;19997;-74
2022/07/01 07:30:31;;;;;;;2.83;0.77;;;19.20;64.00;;;;;;6215808;23;20011;-76
2022/07/01 07:32:57;;;;;;;1.95;0.80;;;19.20;64.00;;;;;;6215745;23;20031;-75
2022/07/01 07:35:23;;;;;;;2.28;0.60;;;19.30;63.70;;;;;;6189322;23;20072;-75
2022/07/01 07:37:49;;;;;;;1.40;0.50;;;19.30;63.60;;;;;;6189352;23;20469;-75
2022/07/01 07:40:18;;;;;;;3.22;0.60;;;19.30;63.50;;;;;;6189330;23;20009;-75
2022/07/01 07:42:45;;;;;;;3.65;0.65;;;19.30;63.60;;;;;;6166634;23;20008;-75
2022/07/01 07:45:11;;;;;;;3.85;0.68;;;19.40;63.30;;;;;;6189049;23;20432;-75
2022/07/01 07:47:37;;;;;;;2.13;0.50;;;19.40;63.10;;;;;;6189748;23;20005;-74
2022/07/01 07:50:03;;;;;;;2.42;0.50;;;19.40;63.40;;;;;;6189411;23;20004;-74
2022/07/01 07:52:29;;;;;;;1.60;0.50;;;19.50;62.90;;;;;;6189093;23;20030;-75
2022/07/01 07:54:54;;;;;;;3.30;1.27;;;19.50;62.80;;;;;;6189192;23;20464;-75
2022/07/01 07:57:20;;;;;;;4.78;1.25;;;19.50;62.50;;;;;;6215905;23;20028;-75
2022/07/01 07:59:46;;;;;;;2.10;0.90;;;19.60;62.00;;;;;;6189025;23;20114;-75
2022/07/01 08:02:12;;;;;;;1.75;0.80;;;19.60;61.90;;;;;;6189327;23;20000;-75
2022/07/01 08:04:37;;;;;;;2.72;1.08;;;19.70;61.70;;;;;;6164676;23;20052;-75
2022/07/01 08:07:03;;;;;;;2.20;0.68;;;19.70;61.40;;;;;;6164516;23;20000;-74
2022/07/01 08:09:29;;;;;;;2.83;0.68;;;19.60;60.80;;;;;;6164160;23;20008;-75
2022/07/01 08:11:54;;;;;;;1.45;0.57;;;19.60;60.90;;;;;;6189283;23;20388;-75
2022/07/01 08:14:20;;;;;;;2.10;0.77;;;19.60;61.10;;;;;;6189017;23;20469;-74
2022/07/01 08:16:45;;;;;;;2.80;0.68;;;19.70;61.30;;;;;;6189213;23;20004;-74
2022/07/01 08:19:11;;;;;;;3.20;0.52;;;19.70;60.60;;;;;;6189129;23;20005;-74
2022/07/01 08:21:37;;;;;;;2.75;0.60;;;19.70;60.60;;;;;;6189107;23;20043;-75
2022/07/01 08:24:02;;;;;;;1.30;0.40;;;19.80;60.70;;;;;;6189246;23;20003;-75
2022/07/01 08:26:28;;;;;;;0.57;0.47;;;19.80;60.00;;;;;;6164306;23;20330;-75
2022/07/01 08:28:54;;;;;;;1.85;0.50;;;19.80;59.90;;;;;;6164152;23;20032;-75
2022/07/01 08:31:20;;;;;;;2.80;0.70;;;19.80;59.90;;;;;;6215534;23;20024;-75
2022/07/01 08:33:45;;;;;;;1.98;0.50;;;19.80;60.00;;;;;;6188989;23;20074;-71
2022/07/01 08:36:13;;;;;;;1.65;0.50;;;19.90;59.70;;;;;;6215595;23;20384;-69
2022/07/01 08:38:38;;;;;;;2.88;0.90;;;19.80;59.50;;;;;;6188734;23;20020;-68
2022/07/01 08:41:04;;;;;;;2.00;0.38;;;19.70;59.30;;;;;;6164203;23;20484;-69
2022/07/01 08:43:30;;;;;;;1.20;0.38;;;19.50;59.70;;;;;;6214916;23;20039;-68
2022/07/01 08:45:55;;;;;;;1.05;0.50;;;19.40;60.10;;;;;;6188825;23;20000;-68
2022/07/01 08:48:21;;;;;;;3.65;0.57;;;19.40;60.00;;;;;;6163992;23;19997;-68
2022/07/01 08:50:47;;;;;;;1.65;0.43;;;19.40;60.00;;;;;;6164152;23;20001;-68
2022/07/01 08:53:13;;;;;;;1.40;0.30;;;19.40;60.10;;;;;;6188324;23;20039;-68
2022/07/01 08:58:24;;;;;;;2.13;0.65;;;19.40;60.50;;;;;;6212573;23;20012;-69
2022/07/01 09:00:50;;;;;;;2.40;1.02;;;19.30;60.90;;;;;;6186227;23;20071;-69
2022/07/01 09:03:15;;;;;;;3.00;0.70;;;19.30;61.10;;;;;;6161766;23;20426;-69
2022/07/01 09:05:49;;;;;;;1.35;0.50;;;19.30;61.50;;;;;;6161651;23;19997;-69
2022/07/01 09:08:15;;;;;;;1.02;0.55;;;19.30;61.20;;;;;;6186945;23;20463;-69
2022/07/01 09:10:40;;;;;;;1.73;0.47;;;19.30;61.30;;;;;;6188049;23;20031;-69
2022/07/01 09:13:07;;;;;;;2.67;1.25;;;19.20;61.20;;;;;;6188021;23;20004;-69
2022/07/01 09:15:33;;;;;;;2.17;0.70;;;19.20;61.40;;;;;;6187919;23;20004;-69
2022/07/01 09:18:05;;;;;;;2.45;0.52;;;19.20;61.40;;;;;;6212985;23;20450;-70
2022/07/01 09:20:35;;;;;;;1.70;0.60;;;19.40;61.50;;;;;;6215813;23;20011;-69
2022/07/01 09:23:12;;;;;;;1.05;0.43;;;19.40;61.10;;;;;;6165592;23;19997;-70
2022/07/01 09:25:45;;;;;;;1.95;0.57;;;19.50;60.90;;;;;;6165299;23;20016;-70
2022/07/01 09:28:26;;;;;;;2.42;0.63;;;19.50;60.60;;;;;;6190505;23;19996;-70
2022/07/01 09:30:58;;;;;;;3.75;0.70;;;19.60;60.50;;;;;;6165248;23;20011;-70
2022/07/01 09:33:25;;;;;;;3.30;0.80;;;19.60;60.50;;;;;;6165905;23;20008;-70
2022/07/01 09:35:51;;;;;;;2.85;0.82;;;19.70;60.50;;;;;;6165268;23;20034;-70
2022/07/01 09:38:18;;;;;;;2.28;0.88;;;19.70;60.40;;;;;;6190009;23;20020;-70
2022/07/01 09:40:54;;;;;;;1.60;0.57;;;19.70;60.50;;;;;;6164880;23;20441;-70
2022/07/01 09:43:24;;;;;;;1.75;0.70;;;19.70;60.40;;;;;;6190152;23;20003;-70
2022/07/01 09:46:01;;;;;;;1.15;0.63;;;19.80;60.30;;;;;;6165180;23;20000;-70
2022/07/01 09:48:42;;;;;;;0.80;0.50;;;19.80;60.20;;;;;;6190965;23;20386;-72
2022/07/01 09:51:08;;;;;;;2.15;0.70;;;19.80;59.90;;;;;;6190092;23;20008;-72
2022/07/01 09:53:34;;;;;;;1.77;0.57;;;19.90;60.00;;;;;;6165079;23;20019;-71
2022/07/01 09:56:00;;;;;;;3.33;0.65;;;19.90;59.80;;;;;;6216393;23;20075;-71
2022/07/01 09:58:25;;;;;;;2.55;0.60;;;19.90;59.40;;;;;;6189590;23;20343;-71
2022/07/01 10:00:54;;;;;;;2.47;0.65;;;19.90;59.70;;;;;;6189686;23;20001;-70
2022/07/01 10:03:20;;;;;;;1.00;0.50;;;19.90;59.30;;;;;;6189848;23;20001;-70
2022/07/01 10:05:51;;;;;;;0.95;0.65;;;19.90;58.70;;;;;;6164859;23;20001;-70
2022/07/01 10:08:38;;;;;;;1.90;0.50;;;19.90;58.70;;;;;;6165109;23;20035;-70
2022/07/01 10:11:36;;;;;;;1.98;0.35;;;20.00;60.00;;;;;;6189190;23;20020;-70
2022/07/01 10:14:05;;;;;;;4.45;0.55;;;20.00;58.80;;;;;;6216230;23;20004;-70
2022/07/01 10:16:34;;;;;;;3.95;0.80;;;20.00;58.80;;;;;;6164802;23;20086;-70
2022/07/01 10:19:25;;;;;;;1.48;0.50;;;20.00;58.80;;;;;;6189660;23;20020;-70
2022/07/01 10:21:53;;;;;;;0.93;0.60;;;20.00;59.10;;;;;;6168968;23;20076;-70
2022/07/01 10:24:19;;;;;;;2.03;0.57;;;20.00;58.40;;;;;;6164901;23;20058;-68
2022/07/01 10:26:45;;;;;;;0.93;0.40;;;20.00;59.00;;;;;;6215716;23;20008;-69
2022/07/01 10:29:30;;;;;;;3.72;0.57;;;20.00;58.80;;;;;;6188439;23;20001;-69
2022/07/01 10:32:09;;;;;;;1.08;0.50;;;19.80;59.00;;;;;;6215914;23;19996;-68
2022/07/01 10:34:39;;;;;;;2.17;0.30;;;19.80;58.90;;;;;;6165297;23;20001;-69
2022/07/01 10:37:08;;;;;;;2.75;0.73;;;19.70;59.50;;;;;;6187956;23;20027;-68
2022/07/01 10:39:59;;;;;;;1.02;0.40;;;19.70;58.90;;;;;;6215247;23;20027;-69
2022/07/01 10:42:33;;;;;;;1.20;0.60;;;19.70;59.30;;;;;;6215772;23;20004;-68
2022/07/01 10:45:09;;;;;;;2.70;0.57;;;19.80;61.00;;;;;;6215959;23;20000;-68
2022/07/01 10:47:36;;;;;;;3.15;0.50;;;19.70;60.20;;;;;;6164517;23;20008;-69
2022/07/01 10:50:08;;;;;;;1.85;0.70;;;19.70;60.00;;;;;;6164787;23;20341;-68
2022/07/01 10:52:34;;;;;;;;;;;19.70;60.00;;;;;;6215806;23;20107;-69
2022/07/01 10:55:00;;;;;;;6.28;1.75;;;19.70;60.00;;;;;;6189563;23;19899;-68
2022/07/01 10:57:27;;;;;;;5.03;1.98;;;19.60;59.30;;;;;;6215620;23;20000;-68
2022/07/01 11:00:00;;;;;;;4.07;2.45;;;19.60;59.40;;;;;;6189142;23;20441;-68
2022/07/01 11:02:26;;;;;;;5.45;2.10;;;19.60;59.40;;;;;;6215445;23;20005;-68
2022/07/01 11:04:59;;;;;;;5.20;2.28;;;19.60;59.20;;;;;;6189062;23;20007;-68
2022/07/01 11:07:26;;;;;;;5.45;2.55;;;19.50;59.40;;;;;;6164854;23;20437;-70
2022/07/01 11:09:52;;;;;;;4.85;2.65;;;19.50;59.40;;;;;;6215322;23;20011;-69
2022/07/01 11:12:19;;;;;;;7.72;2.97;;;19.50;59.70;;;;;;6164618;23;20005;-69
2022/07/01 11:14:44;;;;;;;7.57;2.47;;;19.50;59.70;;;;;;6164351;23;20334;-70
2022/07/01 11:17:10;;;;;;;6.68;3.10;;;19.50;59.70;;;;;;6188932;23;20072;-69
2022/07/01 11:19:36;;;;;;;9.65;2.58;;;19.50;60.00;;;;;;6215498;23;20074;-68
2022/07/01 11:22:02;;;;;;;5.50;2.35;;;19.50;60.30;;;;;;6188913;23;20005;-68
2022/07/01 11:24:28;;;;;;;3.97;1.90;;;19.40;60.20;;;;;;6164474;23;20051;-69
2022/07/01 11:26:56;;;;;;;6.35;2.05;;;19.40;60.10;;;;;;6215364;23;20004;-69
2022/07/01 11:29:26;;;;;;;5.95;2.30;;;19.50;60.20;;;;;;6164133;23;20008;-72
2022/07/01 11:31:51;;;;;;;5.30;2.70;;;19.50;60.80;;;;;;6215990;23;20765;-73
2022/07/01 11:34:17;;;;;;;6.68;2.63;;;19.70;61.00;;;;;;6189554;23;20078;-73
2022/07/01 11:39:32;;;;;;;6.03;2.72;;;20.00;60.80;;;;;;6172451;23;20023;-73
2022/07/01 11:42:02;;;;;;;7.70;3.08;;;20.10;60.60;;;;;;6166348;23;20020;-73
2022/07/01 11:44:32;;;;;;;5.90;2.53;;;20.10;60.60;;;;;;6215499;23;20499;-74
2022/07/01 11:46:57;;;;;;;6.72;2.70;;;20.20;60.80;;;;;;6189382;23;19997;-73
2022/07/01 11:49:25;;;;;;;8.68;3.25;;;20.20;60.70;;;;;;6189464;23;20006;-73
2022/07/01 11:52:00;;;;;;;5.85;2.60;;;20.20;60.70;;;;;;6189170;23;19997;-73
2022/07/01 11:54:26;;;;;;;5.57;2.25;;;20.30;60.70;;;;;;6189261;23;20008;-73
2022/07/01 11:56:51;;;;;;;6.93;2.70;;;20.30;60.70;;;;;;6189092;23;20000;-72
2022/07/01 11:59:18;;;;;;;4.47;2.45;;;20.30;60.70;;;;;;6164412;23;20011;-73
2022/07/01 12:01:52;;;;;;;4.80;2.10;;;20.40;60.80;;;;;;6215554;23;19997;-72
2022/07/01 12:04:18;;;;;;;5.40;1.95;;;20.40;60.60;;;;;;6189913;23;20056;-73
2022/07/01 12:06:44;;;;;;;6.88;2.65;;;20.40;60.60;;;;;;6188831;23;20001;-74
2022/07/01 12:09:17;;;;;;;5.40;2.28;;;20.50;60.60;;;;;;6189111;23;20083;-73
2022/07/01 12:11:47;;;;;;;5.43;2.45;;;20.40;60.50;;;;;;6189290;23;20039;-73
2022/07/01 12:14:19;;;;;;;5.57;2.10;;;20.50;60.60;;;;;;6164231;23;19997;-73
2022/07/01 12:16:45;;;;;;;5.13;2.03;;;20.50;60.50;;;;;;6215595;23;20072;-73
2022/07/01 12:19:10;;;;;;;5.40;2.40;;;20.50;60.80;;;;;;6189177;23;20071;-73
2022/07/01 12:21:53;;;;;;;5.97;2.38;;;20.60;60.80;;;;;;6188727;23;20337;-73
2022/07/01 12:24:21;;;;;;;7.93;2.15;;;20.60;60.80;;;;;;6164281;23;20001;-73
2022/07/01 12:26:48;;;;;;;3.38;1.70;;;20.60;61.00;;;;;;6189789;23;20063;-73
2022/07/01 12:29:15;;;;;;;4.63;2.00;;;20.60;61.00;;;;;;6189236;23;20456;-73
2022/07/01 12:31:41;;;;;;;4.03;1.90;;;20.60;61.20;;;;;;6188843;23;20071;-73
2022/07/01 12:34:07;;;;;;;6.20;2.30;;;20.60;61.20;;;;;;6164297;23;20001;-73
2022/07/01 12:36:33;;;;;;;3.75;1.98;;;20.60;61.10;;;;;;6215151;23;20084;-73
2022/07/01 12:39:05;;;;;;;3.90;2.00;;;20.60;61.30;;;;;;6183661;23;20441;-73
2022/07/01 12:41:35;;;;;;;5.03;2.28;;;20.60;61.20;;;;;;6158889;23;20453;-73
2022/07/01 12:44:21;;;;;;;5.18;1.95;;;20.60;61.40;;;;;;6185445;23;20059;-69
2022/07/01 12:46:47;;;;;;;4.97;2.05;;;20.50;61.30;;;;;;6184636;23;20052;-69
2022/07/01 12:49:23;;;;;;;2.88;1.80;;;20.50;61.50;;;;;;6183503;23;19998;-70
2022/07/01 12:51:49;;;;;;;4.57;1.88;;;20.50;61.50;;;;;;6183246;23;20004;-69
2022/07/01 12:54:32;;;;;;;3.65;1.85;;;20.50;61.70;;;;;;6181946;23;19997;-69
2022/07/01 12:56:58;;;;;;;4.43;1.80;;;20.50;61.60;;;;;;6155325;23;19997;-69
2022/07/01 12:59:23;;;;;;;4.63;1.52;;;20.40;61.60;;;;;;6182564;23;20005;-69
2022/07/01 13:01:51;;;;;;;5.40;1.75;;;20.40;61.70;;;;;;6181101;23;20024;-69